createdAt,value
2022-10-24T00:01:11.801Z,0.01
2022-10-24T00:03:10.120Z,0.01
2022-10-24T00:05:08.969Z,0.01
2022-10-24T00:07:09.443Z,0.01
2022-10-24T00:09:09.120Z,0.01
2022-10-24T00:11:09.457Z,0.01
2022-10-24T00:13:09.810Z,0.01
2022-10-24T00:15:09.194Z,0.01
2022-10-24T00:17:09.549Z,0.01
2022-10-24T00:19:09.473Z,0.01
2022-10-24T00:21:09.338Z,0.01
2022-10-24T00:23:09.817Z,0.01
2022-10-24T00:25:08.801Z,0.01
2022-10-24T00:27:09.764Z,0.01
2022-10-24T00:29:08.923Z,0.01
2022-10-24T00:31:09.035Z,0.01
2022-10-24T00:33:09.421Z,0.01
2022-10-24T00:35:09.385Z,0.01
2022-10-24T00:37:08.829Z,0.01
2022-10-24T00:39:08.900Z,0.01
2022-10-24T00:41:09.326Z,0.01
2022-10-24T00:43:08.837Z,0.01
2022-10-24T00:45:09.546Z,0.01
2022-10-24T00:47:09.003Z,0.01
2022-10-24T00:49:09.572Z,0.01
2022-10-24T00:51:09.074Z,0.01
2022-10-24T00:53:09.867Z,0.01
2022-10-24T00:55:09.225Z,0.01
2022-10-24T00:57:09.708Z,0.01
2022-10-24T00:59:09.277Z,0.01
2022-10-24T01:01:14.751Z,0.01
2022-10-24T01:03:09.592Z,0.01
2022-10-24T01:05:09.170Z,0.01
2022-10-24T01:07:08.879Z,0.01
2022-10-24T01:09:09.655Z,0.01
2022-10-24T01:11:09.851Z,0.01
2022-10-24T01:13:09.956Z,0.01
2022-10-24T01:15:09.162Z,0.01
2022-10-24T01:17:09.595Z,0.01
2022-10-24T01:19:09.701Z,0.01
2022-10-24T01:21:09.053Z,0.01
2022-10-24T01:23:09.312Z,0.01
2022-10-24T01:25:09.070Z,0.01
2022-10-24T01:27:09.486Z,0.01
2022-10-24T01:29:09.224Z,0.01
2022-10-24T01:31:09.382Z,0.01
2022-10-24T01:33:09.234Z,0.01
2022-10-24T01:35:09.508Z,0.01
2022-10-24T01:37:09.334Z,0.01
2022-10-24T01:39:09.053Z,0.01
2022-10-24T01:41:09.386Z,0.01
2022-10-24T01:43:09.368Z,0.01
2022-10-24T01:45:08.883Z,0.01
2022-10-24T01:47:09.535Z,0.01
2022-10-24T01:49:09.549Z,0.01
2022-10-24T01:51:09.021Z,0.01
2022-10-24T01:53:10.280Z,0.01
2022-10-24T01:55:09.211Z,0.01
2022-10-24T01:57:09.086Z,0.01
2022-10-24T01:59:09.740Z,0.01
2022-10-24T02:01:12.044Z,0.01
2022-10-24T02:03:09.626Z,0.01
2022-10-24T02:05:09.522Z,0.01
2022-10-24T02:07:09.308Z,0.01
2022-10-24T02:09:09.790Z,0.01
2022-10-24T02:11:08.946Z,0.01
2022-10-24T02:13:09.449Z,0.01
2022-10-24T02:15:09.341Z,0.01
2022-10-24T02:17:08.773Z,0.01
2022-10-24T02:19:09.091Z,0.01
2022-10-24T02:21:09.775Z,0.01
2022-10-24T02:23:09.275Z,0.01
2022-10-24T02:25:08.701Z,0.01
2022-10-24T02:27:09.133Z,0.01
2022-10-24T02:29:09.612Z,0.01
2022-10-24T02:31:09.552Z,0.01
2022-10-24T02:33:09.339Z,0.01
2022-10-24T02:35:08.937Z,0.01
2022-10-24T02:37:08.944Z,0.01
2022-10-24T02:39:09.224Z,0.01
2022-10-24T02:41:09.770Z,0.01
2022-10-24T02:43:09.108Z,0.01
2022-10-24T02:45:09.617Z,0.01
2022-10-24T02:47:09.402Z,0.01
2022-10-24T02:49:09.404Z,0.01
2022-10-24T02:51:09.407Z,0.01
2022-10-24T02:53:09.378Z,0.01
2022-10-24T02:55:09.134Z,0.01
2022-10-24T02:57:09.581Z,0.01
2022-10-24T03:01:12.755Z,0.01
2022-10-24T03:03:09.997Z,0.01
2022-10-24T03:05:09.131Z,0.01
2022-10-24T03:07:09.123Z,0.01
2022-10-24T03:09:09.610Z,0.01
2022-10-24T03:11:09.099Z,0.01
2022-10-24T03:13:09.888Z,0.01
2022-10-24T03:15:09.471Z,0.01
2022-10-24T03:17:10.695Z,0.01
2022-10-24T03:19:09.130Z,0.01
2022-10-24T03:21:08.775Z,0.01
2022-10-24T03:23:15.811Z,0.01
2022-10-24T03:25:29.601Z,0.01
2022-10-24T03:27:09.092Z,0.01
2022-10-24T03:29:09.489Z,0.01
2022-10-24T03:31:09.338Z,0.01
2022-10-24T03:33:10.413Z,0.01
2022-10-24T03:35:11.763Z,0.01
2022-10-24T03:37:09.226Z,0.01
2022-10-24T03:39:09.581Z,0.01
2022-10-24T03:41:09.810Z,0.01
2022-10-24T03:43:10.231Z,0.01
2022-10-24T03:45:09.420Z,0.01
2022-10-24T03:47:09.301Z,0.01
2022-10-24T03:49:09.349Z,0.01
2022-10-24T03:51:09.537Z,0.01
2022-10-24T03:53:10.257Z,0.01
2022-10-24T03:55:08.971Z,0.01
2022-10-24T03:57:09.114Z,0.01
2022-10-24T03:59:09.224Z,0.01
2022-10-24T04:01:14.931Z,0.01
2022-10-24T04:03:12.819Z,0.01
2022-10-24T04:05:09.499Z,0.01
2022-10-24T04:07:10.580Z,0.01
2022-10-24T04:09:09.660Z,0.01
2022-10-24T04:11:09.106Z,0.01
2022-10-24T04:13:09.726Z,0.01
2022-10-24T04:15:16.104Z,0.01
2022-10-24T04:17:09.145Z,0.01
2022-10-24T04:19:09.684Z,0.01
2022-10-24T04:21:09.466Z,0.01
2022-10-24T04:23:14.976Z,0.01
2022-10-24T04:25:09.492Z,0.01
2022-10-24T04:27:08.999Z,0.01
2022-10-24T04:29:09.771Z,0.01
2022-10-24T04:31:13.289Z,0.01
2022-10-24T04:33:09.448Z,0.01
2022-10-24T04:35:09.436Z,0.01
2022-10-24T04:37:09.700Z,0.01
2022-10-24T04:39:09.411Z,0.01
2022-10-24T04:41:11.967Z,0.01
2022-10-24T04:43:09.412Z,0.01
2022-10-24T04:45:08.921Z,0.01
2022-10-24T04:47:14.026Z,0.01
2022-10-24T04:49:09.221Z,0.01
2022-10-24T04:51:09.758Z,0.01
2022-10-24T04:53:09.766Z,0.01
2022-10-24T04:55:09.057Z,0.01
2022-10-24T04:57:09.297Z,0.01
2022-10-24T04:59:09.645Z,0.01
2022-10-24T05:01:12.162Z,0.01
2022-10-24T05:03:10.676Z,0.01
2022-10-24T05:05:09.686Z,0.01
2022-10-24T05:07:09.346Z,0.01
2022-10-24T05:09:08.955Z,0.01
2022-10-24T05:11:09.158Z,0.01
2022-10-24T05:13:10.100Z,0.01
2022-10-24T05:15:09.751Z,0.01
2022-10-24T05:17:09.605Z,0.01
2022-10-24T05:19:09.028Z,0.01
2022-10-24T05:21:09.652Z,0.01
2022-10-24T05:23:13.580Z,0.01
2022-10-24T05:25:09.594Z,0.01
2022-10-24T05:27:09.114Z,0.01
2022-10-24T05:29:15.390Z,0.01
2022-10-24T05:31:08.927Z,0.01
2022-10-24T05:33:13.482Z,0.01
2022-10-24T05:35:09.235Z,0.01
2022-10-24T05:37:08.855Z,0.01
2022-10-24T05:39:09.358Z,0.01
2022-10-24T05:41:09.368Z,0.01
2022-10-24T05:43:10.227Z,0.01
2022-10-24T05:45:09.167Z,0.01
2022-10-24T05:47:09.734Z,0.01
2022-10-24T05:49:09.049Z,0.01
2022-10-24T05:51:09.558Z,0.01
2022-10-24T05:53:09.944Z,0.01
2022-10-24T05:55:41.065Z,0.01
2022-10-24T05:57:09.847Z,0.01
2022-10-24T05:59:09.181Z,0.01
2022-10-24T06:01:16.815Z,0.01
2022-10-24T06:03:10.426Z,0.01
2022-10-24T06:05:10.327Z,0.01
2022-10-24T06:07:08.783Z,0.01
2022-10-24T06:09:08.964Z,0.01
2022-10-24T06:11:09.213Z,0.01
2022-10-24T06:13:09.484Z,0.01
2022-10-24T06:15:09.723Z,0.01
2022-10-24T06:17:09.417Z,0.01
2022-10-24T06:19:09.171Z,0.01
2022-10-24T06:21:09.576Z,0.01
2022-10-24T06:23:10.164Z,0.01
2022-10-24T06:25:09.595Z,0.01
2022-10-24T06:27:09.618Z,0.01
2022-10-24T06:29:09.552Z,0.01
2022-10-24T06:31:09.511Z,0.01
2022-10-24T06:33:09.780Z,0.01
2022-10-24T06:35:09.521Z,0.01
2022-10-24T06:37:14.377Z,0.01
2022-10-24T06:39:08.809Z,0.01
2022-10-24T06:41:09.447Z,0.01
2022-10-24T06:43:09.039Z,0.01
2022-10-24T06:45:08.884Z,0.01
2022-10-24T06:47:08.815Z,0.01
2022-10-24T06:49:09.157Z,0.01
2022-10-24T06:51:09.609Z,0.01
2022-10-24T06:53:09.540Z,0.01
2022-10-24T06:55:14.939Z,0.01
2022-10-24T06:57:09.695Z,0.01
2022-10-24T06:59:08.718Z,0.01
2022-10-24T07:01:14.129Z,0.01
2022-10-24T07:03:13.978Z,0.01
2022-10-24T07:05:08.980Z,0.01
2022-10-24T07:07:09.511Z,0.01
2022-10-24T07:09:11.599Z,0.01
2022-10-24T07:11:09.697Z,0.01
2022-10-24T07:13:09.584Z,0.01
2022-10-24T07:15:13.221Z,0.01
2022-10-24T07:17:09.041Z,0.01
2022-10-24T07:19:09.138Z,0.01
2022-10-24T07:21:08.972Z,0.01
2022-10-24T07:23:09.802Z,0.01
2022-10-24T07:25:08.859Z,0.01
2022-10-24T07:27:09.241Z,0.01
2022-10-24T07:29:08.762Z,0.01
2022-10-24T07:31:13.557Z,0.01
2022-10-24T07:33:09.906Z,0.01
2022-10-24T07:35:09.462Z,0.01
2022-10-24T07:37:13.951Z,0.01
2022-10-24T07:39:14.816Z,0.01
2022-10-24T07:41:09.638Z,0.01
2022-10-24T07:43:09.005Z,0.01
2022-10-24T07:45:09.341Z,0.01
2022-10-24T07:47:08.826Z,0.01
2022-10-24T07:49:09.211Z,0.01
2022-10-24T07:51:09.681Z,0.01
2022-10-24T07:53:09.514Z,0.01
2022-10-24T07:55:11.489Z,0.01
2022-10-24T07:57:09.237Z,0.01
2022-10-24T07:59:13.777Z,0.01
2022-10-24T08:01:18.922Z,0.33
2022-10-24T08:03:09.217Z,0.33
2022-10-24T08:05:09.089Z,0.33
2022-10-24T08:07:09.222Z,0.06
2022-10-24T08:09:36.194Z,0.06
2022-10-24T08:11:09.246Z,0.06
2022-10-24T08:13:12.849Z,0.03
2022-10-24T08:15:09.046Z,0.03
2022-10-24T08:17:09.176Z,0.03
2022-10-24T08:19:13.671Z,0.03
2022-10-24T08:21:09.716Z,0.03
2022-10-24T08:23:09.411Z,0.03
2022-10-24T08:25:09.508Z,0.03
2022-10-24T08:27:08.817Z,0.03
2022-10-24T08:29:14.172Z,0.03
2022-10-24T08:31:09.289Z,0.03
2022-10-24T08:33:09.684Z,0.03
2022-10-24T08:35:09.342Z,0.03
2022-10-24T08:37:08.944Z,0.03
2022-10-24T08:39:09.108Z,0.03
2022-10-24T08:41:09.663Z,0.03
2022-10-24T08:43:09.346Z,0.03
2022-10-24T08:45:09.366Z,0.03
2022-10-24T08:47:09.617Z,0.03
2022-10-24T08:49:08.956Z,0.03
2022-10-24T08:51:09.150Z,0.03
2022-10-24T08:53:09.391Z,0.03
2022-10-24T08:55:20.253Z,0.03
2022-10-24T08:57:09.386Z,0.03
2022-10-24T08:59:09.692Z,0.03
2022-10-24T09:01:13.969Z,0.03
2022-10-24T09:03:13.818Z,0.03
2022-10-24T09:05:08.747Z,0.03
2022-10-24T09:07:09.562Z,0.03
2022-10-24T09:09:09.307Z,0.03
2022-10-24T09:11:09.108Z,0.03
2022-10-24T09:13:08.907Z,0.03
2022-10-24T09:15:09.258Z,0.03
2022-10-24T09:17:09.640Z,0.03
2022-10-24T09:19:09.046Z,0.11
2022-10-24T09:21:09.211Z,0.11
2022-10-24T09:23:11.218Z,0.11
2022-10-24T09:25:09.634Z,0.04
2022-10-24T09:27:09.551Z,0.04
2022-10-24T09:29:08.711Z,0.04
2022-10-24T09:31:15.160Z,0.03
2022-10-24T09:33:09.181Z,0.03
2022-10-24T09:35:09.190Z,0.03
2022-10-24T09:37:09.113Z,2.4
2022-10-24T09:39:09.287Z,2.4
2022-10-24T09:41:09.474Z,2.4
2022-10-24T09:43:09.141Z,2.07
2022-10-24T09:45:09.421Z,2.07
2022-10-24T09:47:09.121Z,2.07
2022-10-24T09:49:15.277Z,0.02
2022-10-24T09:51:09.151Z,0.02
2022-10-24T09:53:09.419Z,0.02
2022-10-24T09:55:08.842Z,0.02
2022-10-24T09:59:09.135Z,0.02
2022-10-24T10:01:11.608Z,0.02
2022-10-24T10:03:10.103Z,0.02
2022-10-24T10:05:16.446Z,0.02
2022-10-24T10:07:09.144Z,0.02
2022-10-24T10:09:09.479Z,0.02
2022-10-24T10:11:09.570Z,0.02
2022-10-24T10:13:10.786Z,1.59
2022-10-24T10:15:09.186Z,1.59
2022-10-24T10:17:12.533Z,1.59
2022-10-24T10:19:09.097Z,0.02
2022-10-24T10:21:15.132Z,0.02
2022-10-24T10:23:09.556Z,0.02
2022-10-24T10:25:09.049Z,0.02
2022-10-24T10:27:09.601Z,0.02
2022-10-24T10:29:10.807Z,0.02
2022-10-24T10:31:09.017Z,0.02
2022-10-24T10:33:08.795Z,0.02
2022-10-24T10:35:13.588Z,0.02
2022-10-24T10:37:09.062Z,0.01
2022-10-24T10:39:09.139Z,0.01
2022-10-24T10:41:09.541Z,0.01
2022-10-24T10:43:09.929Z,0.01
2022-10-24T10:45:08.987Z,0.01
2022-10-24T10:47:09.327Z,0.01
2022-10-24T10:49:09.086Z,1.42
2022-10-24T10:51:09.899Z,1.42
2022-10-24T10:53:10.126Z,1.42
2022-10-24T10:55:09.756Z,0.01
2022-10-24T10:57:09.515Z,0.01
2022-10-24T10:59:09.797Z,0.01
2022-10-24T11:01:12.508Z,0.01
2022-10-24T11:03:15.246Z,0.01
2022-10-24T11:05:09.754Z,0.01
2022-10-24T11:07:09.650Z,1.41
2022-10-24T11:09:13.543Z,1.41
2022-10-24T11:11:09.507Z,1.41
2022-10-24T11:13:08.692Z,1.42
2022-10-24T11:15:09.072Z,1.42
2022-10-24T11:17:11.059Z,1.42
2022-10-24T11:19:09.495Z,1.38
2022-10-24T11:21:09.735Z,1.38
2022-10-24T11:23:09.533Z,1.38
2022-10-24T11:25:10.426Z,0.01
2022-10-24T11:27:09.518Z,0.01
2022-10-24T11:29:09.212Z,0.01
2022-10-24T11:31:15.184Z,1.42
2022-10-24T11:33:09.684Z,1.42
2022-10-24T11:35:08.947Z,1.42
2022-10-24T11:37:10.866Z,1.32
2022-10-24T11:39:09.020Z,1.32
2022-10-24T11:41:12.301Z,1.32
2022-10-24T11:43:10.778Z,0.01
2022-10-24T11:45:09.084Z,0.01
2022-10-24T11:47:08.908Z,0.01
2022-10-24T11:49:12.025Z,0.01
2022-10-24T11:51:11.021Z,0.01
2022-10-24T11:53:09.898Z,0.01
2022-10-24T11:55:09.592Z,1.3
2022-10-24T11:59:08.759Z,1.3
2022-10-24T12:01:11.803Z,0.01
2022-10-24T12:03:09.589Z,0.01
2022-10-24T12:05:09.506Z,0.01
2022-10-24T12:07:09.685Z,1.31
2022-10-24T12:09:09.332Z,1.31
2022-10-24T12:11:08.837Z,1.31
2022-10-24T12:13:10.333Z,0.01
2022-10-24T12:15:09.222Z,0.01
2022-10-24T12:17:09.113Z,0.01
2022-10-24T12:19:09.193Z,0.01
2022-10-24T12:21:09.858Z,0.01
2022-10-24T12:23:09.889Z,0.01
2022-10-24T12:25:09.295Z,0.01
2022-10-24T12:27:08.871Z,0.01
2022-10-24T12:29:09.201Z,0.01
2022-10-24T12:31:09.447Z,0.01
2022-10-24T12:33:09.999Z,0.01
2022-10-24T12:35:41.454Z,0.01
2022-10-24T12:39:09.091Z,0.01
2022-10-24T12:41:09.595Z,0.01
2022-10-24T12:43:09.087Z,0.01
2022-10-24T12:45:09.275Z,0.01
2022-10-24T12:47:09.657Z,0.01
2022-10-24T12:49:09.213Z,0.01
2022-10-24T12:51:09.425Z,0.01
2022-10-24T12:53:10.176Z,0.01
2022-10-24T12:55:09.007Z,1.42
2022-10-24T12:57:09.598Z,1.42
2022-10-24T12:59:09.537Z,1.42
2022-10-24T13:01:13.673Z,1.42
2022-10-24T13:03:12.121Z,1.42
2022-10-24T13:05:09.463Z,1.42
2022-10-24T13:07:08.998Z,1.41
2022-10-24T13:09:09.761Z,1.41
2022-10-24T13:11:09.127Z,1.41
2022-10-24T13:15:09.293Z,0.01
2022-10-24T13:17:09.192Z,0.01
2022-10-24T13:19:09.265Z,0.01
2022-10-24T13:21:14.140Z,0.01
2022-10-24T13:23:09.798Z,0.01
2022-10-24T13:25:12.874Z,1.33
2022-10-24T13:27:12.972Z,1.33
2022-10-24T13:29:09.264Z,1.33
2022-10-24T13:31:12.276Z,1.35
2022-10-24T13:33:13.547Z,1.35
2022-10-24T13:35:09.135Z,1.35
2022-10-24T13:37:13.755Z,1.36
2022-10-24T13:39:14.622Z,1.36
2022-10-24T13:41:09.510Z,1.36
2022-10-24T13:43:19.008Z,0.01
2022-10-24T13:45:09.076Z,0.01
2022-10-24T13:47:15.913Z,0.01
2022-10-24T13:49:12.816Z,0.01
2022-10-24T13:51:09.692Z,0.01
2022-10-24T13:53:12.107Z,0.01
2022-10-24T13:57:13.379Z,0.01
2022-10-24T13:59:14.599Z,0.01
2022-10-24T14:01:11.281Z,0.01
2022-10-24T14:03:13.924Z,0.01
2022-10-24T14:05:09.707Z,0.01
2022-10-24T14:07:09.505Z,0.01
2022-10-24T14:09:25.066Z,0.01
2022-10-24T14:11:09.603Z,0.01
2022-10-24T14:13:10.066Z,1.31
2022-10-24T14:15:14.799Z,1.31
2022-10-24T14:17:09.027Z,1.31
2022-10-24T14:19:10.927Z,0.01
2022-10-24T14:21:09.121Z,0.01
2022-10-24T14:23:10.274Z,0.01
2022-10-24T14:25:08.810Z,1.28
2022-10-24T14:27:10.525Z,1.28
2022-10-24T14:29:11.558Z,1.28
2022-10-24T14:31:09.547Z,0.01
2022-10-24T14:33:09.195Z,0.01
2022-10-24T14:35:10.483Z,0.01
2022-10-24T14:37:08.999Z,0.01
2022-10-24T14:39:13.624Z,0.01
2022-10-24T14:41:20.540Z,0.01
2022-10-24T14:43:09.389Z,0.01
2022-10-24T14:45:12.365Z,0.01
2022-10-24T14:47:11.188Z,0.01
2022-10-24T14:49:09.063Z,1.3
2022-10-24T14:51:09.580Z,1.3
2022-10-24T14:53:09.687Z,1.3
2022-10-24T14:55:09.309Z,0.01
2022-10-24T14:57:11.556Z,0.01
2022-10-24T14:59:09.016Z,0.01
2022-10-24T15:01:12.445Z,0.01
2022-10-24T15:03:15.957Z,0.01
2022-10-24T15:05:09.147Z,0.01
2022-10-24T15:07:08.757Z,0.01
2022-10-24T15:09:31.847Z,0.01
2022-10-24T15:11:10.212Z,0.01
2022-10-24T15:13:09.294Z,0.01
2022-10-24T15:15:18.911Z,0.01
2022-10-24T15:17:10.333Z,0.01
2022-10-24T15:19:08.887Z,0.01
2022-10-24T15:21:09.163Z,0.01
2022-10-24T15:23:09.072Z,0.01
2022-10-24T15:25:09.280Z,0.01
2022-10-24T15:27:09.186Z,0.01
2022-10-24T15:29:09.109Z,0.01
2022-10-24T15:31:10.058Z,0.01
2022-10-24T15:33:09.305Z,0.01
2022-10-24T15:35:09.583Z,0.01
2022-10-24T15:37:16.705Z,0.01
2022-10-24T15:39:15.120Z,0.01
2022-10-24T15:41:09.314Z,0.01
2022-10-24T15:43:11.737Z,0.01
2022-10-24T15:45:09.180Z,0.01
2022-10-24T15:47:09.362Z,0.01
2022-10-24T15:49:09.670Z,1.26
2022-10-24T15:51:09.800Z,1.26
2022-10-24T15:53:10.031Z,1.26
2022-10-24T15:55:09.174Z,1.26
2022-10-24T15:57:14.176Z,1.26
2022-10-24T15:59:11.685Z,1.26
2022-10-24T16:01:12.031Z,0.01
2022-10-24T16:03:09.620Z,0.01
2022-10-24T16:05:09.088Z,0.01
2022-10-24T16:09:09.463Z,1.22
2022-10-24T16:11:09.983Z,1.22
2022-10-24T16:13:09.430Z,0.01
2022-10-24T16:15:09.144Z,0.01
2022-10-24T16:17:09.689Z,0.01
2022-10-24T16:19:09.514Z,0.01
2022-10-24T16:21:09.286Z,0.01
2022-10-24T16:23:09.602Z,0.01
2022-10-24T16:25:09.059Z,1.18
2022-10-24T16:27:09.438Z,1.18
2022-10-24T16:29:09.555Z,1.18
2022-10-24T16:31:09.003Z,0.01
2022-10-24T16:33:09.687Z,0.01
2022-10-24T16:35:09.127Z,0.01
2022-10-24T16:37:10.107Z,0.01
2022-10-24T16:39:09.164Z,0.01
2022-10-24T16:41:09.772Z,0.01
2022-10-24T16:43:09.649Z,0.01
2022-10-24T16:45:09.279Z,0.01
2022-10-24T16:47:09.017Z,0.01
2022-10-24T16:49:09.601Z,1.1
2022-10-24T16:51:09.833Z,1.1
2022-10-24T16:53:09.876Z,1.1
2022-10-24T16:55:09.470Z,0.01
2022-10-24T16:57:16.205Z,0.01
2022-10-24T16:59:11.732Z,0.01
2022-10-24T17:01:14.652Z,0.01
2022-10-24T17:03:08.922Z,0.01
2022-10-24T17:05:09.588Z,0.01
2022-10-24T17:07:09.297Z,0.01
2022-10-24T17:09:09.014Z,0.01
2022-10-24T17:11:32.204Z,0.01
2022-10-24T17:13:09.775Z,0.01
2022-10-24T17:15:09.259Z,0.01
2022-10-24T17:17:09.145Z,0.01
2022-10-24T17:19:29.187Z,0.01
2022-10-24T17:21:08.955Z,0.01
2022-10-24T17:23:15.482Z,0.01
2022-10-24T17:25:09.244Z,0.01
2022-10-24T17:27:09.172Z,0.01
2022-10-24T17:29:09.194Z,0.01
2022-10-24T17:31:09.755Z,1.02
2022-10-24T17:33:09.405Z,1.02
2022-10-24T17:35:08.987Z,1.02
2022-10-24T17:37:09.011Z,0.01
2022-10-24T17:39:10.230Z,0.01
2022-10-24T17:41:09.043Z,0.01
2022-10-24T17:43:09.857Z,0.01
2022-10-24T17:45:08.722Z,0.01
2022-10-24T17:47:09.840Z,0.01
2022-10-24T17:49:09.471Z,0.01
2022-10-24T17:51:09.261Z,0.01
2022-10-24T17:53:10.176Z,0.01
2022-10-24T17:55:14.428Z,0.01
2022-10-24T17:57:11.037Z,0.01
2022-10-24T17:59:09.813Z,0.01
2022-10-24T18:01:12.186Z,0.01
2022-10-24T18:03:09.915Z,0.01
2022-10-24T18:05:08.880Z,0.01
2022-10-24T18:07:14.310Z,0.99
2022-10-24T18:09:09.071Z,0.99
2022-10-24T18:11:09.489Z,0.99
2022-10-24T18:13:09.886Z,0.01
2022-10-24T18:15:08.834Z,0.01
2022-10-24T18:17:13.540Z,0.01
2022-10-24T18:19:08.831Z,0.01
2022-10-24T18:21:09.266Z,0.01
2022-10-24T18:23:09.840Z,0.01
2022-10-24T18:25:09.161Z,0.97
2022-10-24T18:27:09.578Z,0.97
2022-10-24T18:29:09.189Z,0.97
2022-10-24T18:31:09.739Z,0.97
2022-10-24T18:33:09.891Z,0.97
2022-10-24T18:35:15.111Z,0.97
2022-10-24T18:37:08.681Z,0.01
2022-10-24T18:39:09.329Z,0.01
2022-10-24T18:41:09.469Z,0.01
2022-10-24T18:43:09.578Z,0.97
2022-10-24T18:45:13.773Z,0.97
2022-10-24T18:47:09.187Z,0.97
2022-10-24T18:49:08.801Z,0.97
2022-10-24T18:51:08.897Z,0.97
2022-10-24T18:53:09.248Z,0.97
2022-10-24T18:55:09.477Z,0.97
2022-10-24T18:57:12.462Z,0.97
2022-10-24T18:59:09.606Z,0.97
2022-10-24T19:01:12.625Z,0.97
2022-10-24T19:03:09.506Z,0.97
2022-10-24T19:05:09.315Z,0.97
2022-10-24T19:07:08.862Z,0.97
2022-10-24T19:09:09.116Z,0.97
2022-10-24T19:13:09.624Z,0.97
2022-10-24T19:15:09.583Z,0.96
2022-10-24T19:17:15.038Z,0.96
2022-10-24T19:19:09.139Z,0.96
2022-10-24T19:21:09.545Z,0.96
2022-10-24T19:23:10.274Z,0.96
2022-10-24T19:25:09.709Z,0.96
2022-10-24T19:27:09.177Z,0.01
2022-10-24T19:29:14.855Z,0.01
2022-10-24T19:31:08.992Z,0.01
2022-10-24T19:33:10.219Z,0.01
2022-10-24T19:35:09.366Z,0.01
2022-10-24T19:37:13.023Z,0.01
2022-10-24T19:39:09.417Z,0.01
2022-10-24T19:41:08.963Z,0.01
2022-10-24T19:43:09.353Z,0.01
2022-10-24T19:45:09.383Z,0.01
2022-10-24T19:47:26.990Z,0.01
2022-10-24T19:49:09.649Z,0.01
2022-10-24T19:51:09.049Z,1
2022-10-24T19:53:09.294Z,1
2022-10-24T19:55:08.741Z,1
2022-10-24T19:57:10.535Z,0.01
2022-10-24T19:59:09.597Z,0.01
2022-10-24T20:01:10.819Z,0.01
2022-10-24T20:03:09.683Z,0.01
2022-10-24T20:05:11.751Z,0.01
2022-10-24T20:07:08.822Z,0.01
2022-10-24T20:09:09.265Z,1.02
2022-10-24T20:11:09.373Z,1.02
2022-10-24T20:13:10.180Z,1.02
2022-10-24T20:15:09.510Z,0.01
2022-10-24T20:17:08.882Z,0.01
2022-10-24T20:19:09.359Z,0.01
2022-10-24T20:21:08.884Z,0.01
2022-10-24T20:23:11.100Z,0.01
2022-10-24T20:25:08.844Z,0.01
2022-10-24T20:27:09.371Z,0.01
2022-10-24T20:29:09.326Z,0.01
2022-10-24T20:31:09.078Z,0.01
2022-10-24T20:33:08.783Z,0.01
2022-10-24T20:35:15.666Z,0.01
2022-10-24T20:37:08.967Z,0.01
2022-10-24T20:39:09.244Z,0.01
2022-10-24T20:41:09.438Z,0.01
2022-10-24T20:43:09.429Z,0.01
2022-10-24T20:45:09.263Z,1.06
2022-10-24T20:47:09.174Z,1.06
2022-10-24T20:49:09.555Z,1.06
2022-10-24T20:51:09.105Z,0.01
2022-10-24T20:53:09.729Z,0.01
2022-10-24T20:55:19.661Z,0.01
2022-10-24T20:57:15.686Z,0.01
2022-10-24T20:59:09.971Z,0.01
2022-10-24T21:01:13.879Z,0.01
2022-10-24T21:03:10.776Z,0.01
2022-10-24T21:05:14.645Z,0.01
2022-10-24T21:07:09.099Z,0.01
2022-10-24T21:09:09.506Z,1.07
2022-10-24T21:11:08.921Z,1.07
2022-10-24T21:13:10.498Z,1.07
2022-10-24T21:15:09.015Z,1.07
2022-10-24T21:17:08.767Z,1.07
2022-10-24T21:19:09.120Z,1.07
2022-10-24T21:21:09.738Z,0.01
2022-10-24T21:23:08.857Z,0.01
2022-10-24T21:25:14.189Z,0.01
2022-10-24T21:27:08.785Z,0.01
2022-10-24T21:29:33.306Z,0.01
2022-10-24T21:31:11.117Z,0.01
2022-10-24T21:33:09.286Z,0.01
2022-10-24T21:35:08.986Z,0.01
2022-10-24T21:37:09.722Z,0.01
2022-10-24T21:39:09.149Z,0.01
2022-10-24T21:41:08.759Z,0.01
2022-10-24T21:43:09.713Z,0.01
2022-10-24T21:45:08.869Z,0.01
2022-10-24T21:47:09.051Z,0.01
2022-10-24T21:49:12.376Z,0.01
2022-10-24T21:51:09.482Z,0.01
2022-10-24T21:53:09.813Z,0.01
2022-10-24T21:55:09.384Z,0.01
2022-10-24T21:57:09.509Z,1.11
2022-10-24T21:59:09.259Z,1.11
2022-10-24T22:01:16.819Z,1.11
2022-10-24T22:03:10.686Z,0.01
2022-10-24T22:05:09.298Z,0.01
2022-10-24T22:07:09.084Z,0.01
2022-10-24T22:09:08.886Z,0.01
2022-10-24T22:11:09.370Z,0.01
2022-10-24T22:13:08.988Z,0.01
2022-10-24T22:15:08.889Z,0.01
2022-10-24T22:17:09.189Z,0.01
2022-10-24T22:19:09.305Z,0.01
2022-10-24T22:21:10.010Z,0.01
2022-10-24T22:23:09.506Z,0.01
2022-10-24T22:25:08.968Z,0.01
2022-10-24T22:27:09.245Z,0.01
2022-10-24T22:29:08.808Z,0.01
2022-10-24T22:31:09.116Z,0.01
2022-10-24T22:33:09.358Z,1.11
2022-10-24T22:35:09.148Z,1.11
2022-10-24T22:37:09.018Z,1.11
2022-10-24T22:39:09.176Z,0.01
2022-10-24T22:41:09.184Z,0.01
2022-10-24T22:43:13.854Z,0.01
2022-10-24T22:45:08.973Z,0.01
2022-10-24T22:47:09.048Z,0.01
2022-10-24T22:49:09.562Z,0.01
2022-10-24T22:51:09.034Z,0.01
2022-10-24T22:53:09.723Z,0.01
2022-10-24T22:55:10.525Z,0.01
2022-10-24T22:57:09.628Z,1.11
2022-10-24T22:59:09.448Z,1.11
2022-10-24T23:01:09.149Z,1.11
2022-10-24T23:03:11.391Z,1.11
2022-10-24T23:05:09.017Z,1.11
2022-10-24T23:07:10.230Z,1.11
2022-10-24T23:09:09.819Z,0.01
2022-10-24T23:11:09.202Z,0.01
2022-10-24T23:13:10.122Z,0.01
2022-10-24T23:15:09.411Z,1.11
2022-10-24T23:17:09.566Z,1.11
2022-10-24T23:19:09.561Z,1.11
2022-10-24T23:21:09.344Z,0.01
2022-10-24T23:23:40.292Z,0.01
2022-10-24T23:25:09.481Z,0.01
2022-10-24T23:27:09.535Z,0.01
2022-10-24T23:29:09.311Z,0.01
2022-10-24T23:31:10.145Z,0.01
2022-10-24T23:33:10.014Z,1.11
2022-10-24T23:35:09.335Z,1.11
2022-10-24T23:37:14.360Z,1.11
2022-10-24T23:39:09.020Z,1.12
2022-10-24T23:41:09.523Z,1.12
2022-10-24T23:43:09.267Z,1.12
2022-10-24T23:45:09.330Z,1.12
2022-10-24T23:47:09.260Z,1.12
2022-10-24T23:49:09.695Z,1.12
2022-10-24T23:51:09.386Z,0.01
2022-10-24T23:53:09.607Z,0.01
2022-10-24T23:55:09.061Z,0.01
2022-10-24T23:57:08.972Z,0.01
2022-10-24T23:59:09.421Z,0.01
